»·PEaware :: DAL2552 KLAS-PHNL

DAL2552 :: KLAS-PHNL

FLIGHT INFORMATION

Flight Status: Arrived
Operator:
Delta Air Lines
More flights by this operator :: More flights under this callsign
Pilot: Nader Hassan (14630)
Aircraft: Unknown
(B757)
More flights by this aircraft type
Origin: KLAS McCarran Intl
United States
Destination: PHNL Honolulu Intl
United States
More flights between these airports :: More routes between these airports
Route: BOACH7 HEC PMD RZS DINTY DUETS R576 DADIE/N0442F340 R576 DRAYK/N0444F360 R576 DENNS MAGGI3
File this flight plan on PilotEdge
Remarks: PBN / A1B3B4B5C4D4O4 DOF / 170429 REG / N537SB EET / KZAK0105 PHZH0503 OPR / DAL RALT / KSFO PHTO RMK / TCAS SIMBRIEF
Altitude:
(Current/Filed)
36,000ft
Speed:
(Current/Filed)
457kts
Departed: 29-Apr-17 08:54 AM
Arrived: 29-Apr-17 02:43 PM
Distance/Time
Traveled:
272nm/5:49
Distance/Time
To Go:
Arrived

Flight Plot

Page will automatically refresh every two minutes.

Flight plan parsing failed; only flown route is shown


Map Options




Map Legend


Flown Route
Filed Route
Departure Airport
Arrival Airport
Navaid (VOR, NDB)
Fix

Horizontal Profiles

Position Reports

Time Latitude Longitude Heading Altitude Ground
Speed
29-Apr-17 08:29 36.081344 -115.139888 142 2075ft 0kts
29-Apr-17 08:30 36.081344 -115.139888 142 2075ft 0kts
29-Apr-17 08:31 36.081344 -115.139888 142 2075ft 0kts
29-Apr-17 08:32 36.081344 -115.139888 142 2075ft 0kts
29-Apr-17 08:33 36.081344 -115.139888 142 2075ft 0kts
29-Apr-17 08:34 36.081344 -115.139888 142 2075ft 0kts
29-Apr-17 08:35 36.081344 -115.139888 142 2075ft 0kts
29-Apr-17 08:36 36.081478 -115.140234 98 2076ft 2kts
29-Apr-17 08:37 36.081602 -115.141111 101 2077ft 2kts
29-Apr-17 08:38 36.081813 -115.141565 172 2078ft 0kts
29-Apr-17 08:39 36.081824 -115.141568 179 2078ft 0kts
29-Apr-17 08:40 36.081824 -115.141568 179 2078ft 0kts
29-Apr-17 08:41 36.081824 -115.141568 179 2078ft 0kts
29-Apr-17 08:42 36.081824 -115.141568 179 2078ft 0kts
29-Apr-17 08:43 36.081824 -115.141568 179 2078ft 0kts
29-Apr-17 08:44 36.081824 -115.141568 179 2078ft 0kts
29-Apr-17 08:45 36.081824 -115.141568 179 2078ft 0kts
29-Apr-17 08:46 36.081824 -115.141568 179 2078ft 0kts
29-Apr-17 08:48 36.081824 -115.141568 179 2078ft 0kts
29-Apr-17 08:49 36.081824 -115.141568 179 2078ft 0kts
29-Apr-17 08:50 36.080619 -115.141570 180 2082ft 5kts
29-Apr-17 08:51 36.078359 -115.141562 178 2088ft 7kts
29-Apr-17 08:52 36.077529 -115.137977 89 2078ft 18kts
29-Apr-17 08:53 36.077564 -115.129403 89 2052ft 30kts
29-Apr-17 08:54 36.077518 -115.124188 88 2042ft 10kts
29-Apr-17 08:55 36.077423 -115.121489 125 2040ft 8kts
29-Apr-17 08:56 36.076381 -115.128165 272 2052ft 90kts
29-Apr-17 08:57 36.074819 -115.181480 271 3452ft 184kts
29-Apr-17 08:58 36.070367 -115.249913 239 4885ft 231kts
29-Apr-17 08:59 36.004854 -115.287009 205 6982ft 285kts
29-Apr-17 09:00 35.927400 -115.308392 187 9752ft 298kts
29-Apr-17 09:01 35.866284 -115.315300 186 10720ft 343kts
29-Apr-17 09:02 35.761561 -115.305434 176 12647ft 394kts
29-Apr-17 09:03 35.665816 -115.346455 234 15201ft 383kts
29-Apr-17 09:04 35.617967 -115.461138 251 17657ft 382kts
29-Apr-17 09:05 35.574202 -115.580471 251 19619ft 398kts
29-Apr-17 09:06 35.541270 -115.670515 250 21209ft 402kts
29-Apr-17 09:07 35.505261 -115.768733 249 22647ft 411kts
29-Apr-17 09:08 35.457112 -115.897739 244 24350ft 423kts
29-Apr-17 09:09 35.367596 -115.992861 209 25864ft 453kts
29-Apr-17 09:10 35.264334 -116.078942 220 27242ft 456kts
29-Apr-17 09:11 35.159362 -116.167235 219 28537ft 465kts
29-Apr-17 09:12 35.053078 -116.255120 219 29713ft 472kts
29-Apr-17 09:13 34.943342 -116.344756 219 30792ft 480kts
29-Apr-17 09:14 34.870234 -116.404659 223 31645ft 476kts
29-Apr-17 09:15 34.804849 -116.504492 253 32677ft 446kts
29-Apr-17 09:16 34.780260 -116.647264 266 33896ft 430kts
29-Apr-17 09:17 34.772454 -116.714689 267 34418ft 428kts
29-Apr-17 09:18 34.760242 -116.829171 267 35239ft 425kts
29-Apr-17 09:19 34.745658 -116.970607 267 36108ft 422kts
29-Apr-17 09:20 34.731403 -117.111996 268 36180ft 421kts
29-Apr-17 09:21 34.717088 -117.251657 268 36181ft 420kts
29-Apr-17 09:22 34.702688 -117.391126 268 36177ft 421kts
29-Apr-17 09:45 34.253023 -120.496691 253 36099ft 432kts
29-Apr-17 09:46 34.205303 -120.629860 253 36098ft 432kts
29-Apr-17 09:47 34.159641 -120.756844 252 36108ft 433kts
29-Apr-17 09:48 34.111703 -120.889656 252 36107ft 433kts
29-Apr-17 09:49 34.063683 -121.022061 252 36106ft 433kts
29-Apr-17 09:50 34.015471 -121.154523 252 36105ft 433kts
29-Apr-17 09:51 33.967284 -121.286409 252 36104ft 433kts
29-Apr-17 09:52 33.918710 -121.418818 252 36103ft 433kts
29-Apr-17 09:53 33.871078 -121.548128 252 36093ft 433kts
29-Apr-17 09:54 33.823613 -121.676482 252 36103ft 433kts
29-Apr-17 09:55 33.774710 -121.808220 252 36102ft 433kts
29-Apr-17 09:56 33.725413 -121.940480 252 36101ft 433kts
29-Apr-17 09:57 33.676217 -122.071941 252 36100ft 433kts
29-Apr-17 09:58 33.626801 -122.203464 252 36099ft 433kts
29-Apr-17 09:59 33.577218 -122.334912 252 36098ft 433kts
29-Apr-17 10:00 33.527400 -122.466422 252 36097ft 433kts
29-Apr-17 10:01 33.479173 -122.597881 259 36093ft 427kts
29-Apr-17 10:02 33.451117 -122.733260 261 36105ft 426kts
29-Apr-17 10:03 33.422449 -122.870270 261 36104ft 426kts
29-Apr-17 10:04 33.393762 -123.007481 261 36103ft 426kts
29-Apr-17 10:05 33.364986 -123.144885 261 36102ft 426kts
29-Apr-17 10:06 33.336173 -123.281746 261 36100ft 426kts
29-Apr-17 10:07 33.307154 -123.418801 261 36099ft 426kts
29-Apr-17 10:08 33.278012 -123.555634 261 36098ft 426kts
29-Apr-17 10:09 33.248736 -123.692297 261 36110ft 426kts
29-Apr-17 10:10 33.219238 -123.829202 261 36107ft 426kts
29-Apr-17 10:11 33.189619 -123.965892 261 36105ft 426kts
29-Apr-17 10:12 33.159730 -124.103039 261 36104ft 426kts
29-Apr-17 10:13 33.129833 -124.239451 261 36103ft 426kts
29-Apr-17 10:14 33.099855 -124.375459 261 36102ft 426kts
29-Apr-17 10:15 33.069599 -124.511969 261 36100ft 426kts
29-Apr-17 10:16 33.039085 -124.648596 260 36099ft 427kts
29-Apr-17 10:17 33.008492 -124.784752 260 36109ft 427kts
29-Apr-17 10:18 32.977687 -124.921127 260 36108ft 427kts
29-Apr-17 10:19 32.946681 -125.057644 260 36107ft 427kts
29-Apr-17 10:20 32.915647 -125.193539 260 36105ft 427kts
29-Apr-17 10:21 32.890178 -125.330542 262 36094ft 426kts
29-Apr-17 10:22 32.860508 -125.467127 260 36094ft 427kts
29-Apr-17 10:23 32.829259 -125.603339 260 36092ft 427kts
29-Apr-17 10:24 32.797643 -125.739257 259 36102ft 428kts
29-Apr-17 10:25 32.765800 -125.875216 259 36101ft 428kts
29-Apr-17 10:26 32.733877 -126.010757 259 36100ft 428kts
29-Apr-17 10:27 32.701634 -126.146930 259 36099ft 428kts
29-Apr-17 10:28 32.669416 -126.282281 259 36097ft 428kts
29-Apr-17 10:29 32.636908 -126.418143 259 36096ft 428kts
29-Apr-17 10:30 32.604375 -126.553399 259 36095ft 428kts
29-Apr-17 10:31 32.572087 -126.686962 258 36109ft 417kts
29-Apr-17 10:32 32.540253 -126.817967 258 36104ft 417kts
29-Apr-17 10:33 32.508112 -126.949590 258 36103ft 416kts
29-Apr-17 10:34 32.475896 -127.080861 258 36101ft 416kts
29-Apr-17 10:35 32.443547 -127.212035 258 36100ft 416kts
29-Apr-17 10:36 32.411020 -127.343285 258 36098ft 416kts
29-Apr-17 10:37 32.378315 -127.474607 258 36096ft 416kts
29-Apr-17 10:38 32.345515 -127.605672 258 36095ft 416kts
29-Apr-17 10:39 32.312699 -127.736151 257 36106ft 416kts
29-Apr-17 10:40 32.279705 -127.866727 257 36161ft 417kts
29-Apr-17 10:41 32.246486 -127.997557 257 36158ft 416kts
29-Apr-17 10:42 32.213129 -128.128312 257 36156ft 416kts
29-Apr-17 10:43 32.179828 -128.258224 257 36154ft 416kts
29-Apr-17 10:44 32.146338 -128.388263 257 36153ft 416kts
29-Apr-17 10:45 32.112634 -128.518520 257 36151ft 416kts
29-Apr-17 10:46 32.078766 -128.648799 257 36150ft 416kts
29-Apr-17 10:47 32.045122 -128.777596 256 36161ft 416kts
29-Apr-17 10:48 32.011023 -128.907546 256 36160ft 416kts
29-Apr-17 10:49 31.976782 -129.037440 256 36158ft 416kts
29-Apr-17 10:50 31.942388 -129.167320 256 36157ft 416kts
29-Apr-17 10:51 31.907903 -129.296946 256 36155ft 416kts
29-Apr-17 10:52 31.873220 -129.426712 256 36149ft 416kts
29-Apr-17 10:53 31.838516 -129.555964 256 36147ft 416kts
29-Apr-17 10:54 31.803616 -129.685372 256 36161ft 416kts
29-Apr-17 10:55 31.768645 -129.814473 256 36157ft 416kts
29-Apr-17 10:56 31.733413 -129.943948 256 36156ft 416kts
29-Apr-17 10:57 31.698096 -130.073152 256 36154ft 416kts
29-Apr-17 10:58 31.662807 -130.201685 256 36153ft 416kts
29-Apr-17 10:59 31.627195 -130.330822 256 36151ft 416kts
29-Apr-17 11:00 31.591571 -130.459434 256 36150ft 416kts
29-Apr-17 11:01 31.555762 -130.588150 256 36148ft 416kts
29-Apr-17 11:02 31.519826 -130.716767 255 36160ft 416kts
29-Apr-17 11:03 31.483817 -130.845086 255 36158ft 416kts
29-Apr-17 11:04 31.447658 -130.973382 255 36157ft 416kts
29-Apr-17 11:05 31.411397 -131.101483 255 36155ft 416kts
29-Apr-17 11:06 31.374969 -131.229631 255 36154ft 416kts
29-Apr-17 11:07 31.338490 -131.357410 255 36152ft 416kts
29-Apr-17 11:08 31.301831 -131.485278 255 36150ft 416kts
29-Apr-17 11:09 31.264965 -131.613328 255 36149ft 415kts
29-Apr-17 11:10 31.228094 -131.740839 255 36160ft 416kts
29-Apr-17 11:11 31.190988 -131.868637 255 36159ft 416kts
29-Apr-17 11:12 31.153772 -131.996287 255 36158ft 416kts
29-Apr-17 11:13 31.116472 -132.123688 255 36156ft 416kts
29-Apr-17 11:14 31.044153 -132.369208 255 36152ft 415kts
29-Apr-17 11:15 30.924702 -132.770435 254 36161ft 415kts
29-Apr-17 11:16 30.805410 -133.166019 254 36153ft 415kts
29-Apr-17 11:17 30.690630 -133.542065 254 36148ft 415kts
29-Apr-17 11:18 30.571765 -133.926884 253 36157ft 415kts
29-Apr-17 11:19 30.463595 -134.273195 253 36152ft 415kts
29-Apr-17 11:20 30.350021 -134.632845 253 36148ft 415kts
29-Apr-17 11:21 30.236863 -134.987324 253 36184ft 415kts
29-Apr-17 11:22 30.186384 -135.144203 253 36182ft 415kts
29-Apr-17 11:23 30.146019 -135.269081 253 36181ft 415kts
29-Apr-17 11:24 30.105603 -135.393642 253 36179ft 415kts
29-Apr-17 11:25 30.065129 -135.517918 253 36177ft 415kts
29-Apr-17 11:26 30.024531 -135.642115 253 36176ft 415kts
29-Apr-17 11:27 29.982689 -135.769617 252 36188ft 415kts
29-Apr-17 11:28 29.939471 -135.900813 252 36186ft 415kts
29-Apr-17 11:29 29.898391 -136.025067 252 36184ft 415kts
29-Apr-17 11:30 29.851898 -136.165126 252 36180ft 415kts
29-Apr-17 11:31 29.810534 -136.289260 252 36178ft 415kts
29-Apr-17 11:32 29.763505 -136.429834 252 36177ft 415kts
29-Apr-17 11:33 29.721972 -136.553523 252 36175ft 415kts
29-Apr-17 11:34 29.680274 -136.677254 252 36188ft 415kts
29-Apr-17 11:35 29.636373 -136.807057 252 36185ft 415kts
29-Apr-17 11:36 29.594473 -136.930481 252 36184ft 415kts
29-Apr-17 11:37 29.552501 -137.053690 252 36182ft 415kts
29-Apr-17 11:38 29.510437 -137.176721 252 36181ft 415kts
29-Apr-17 11:39 29.468222 -137.299766 252 36179ft 415kts
29-Apr-17 11:40 29.426050 -137.422257 252 36177ft 415kts
29-Apr-17 11:41 29.383884 -137.544304 252 36176ft 415kts
29-Apr-17 11:42 29.341306 -137.667118 251 36185ft 415kts
29-Apr-17 11:43 29.275561 -137.855867 251 36186ft 415kts
29-Apr-17 11:44 29.223075 -138.005866 251 36185ft 418kts
29-Apr-17 11:45 29.175205 -138.142063 251 36182ft 417kts
29-Apr-17 11:46 29.125199 -138.283838 251 36180ft 417kts
29-Apr-17 11:47 29.081764 -138.406541 251 36178ft 417kts
29-Apr-17 11:48 29.038055 -138.529610 251 36177ft 417kts
29-Apr-17 11:49 28.995133 -138.650050 250 36175ft 417kts
29-Apr-17 11:50 28.951395 -138.772352 250 36187ft 417kts
29-Apr-17 11:51 28.907442 -138.894859 250 36185ft 417kts
29-Apr-17 11:52 28.863330 -139.017398 250 36182ft 417kts
29-Apr-17 11:53 28.819275 -139.139365 250 36181ft 417kts
29-Apr-17 11:54 28.775217 -139.260935 250 36179ft 418kts
29-Apr-17 11:55 28.730975 -139.382609 250 36178ft 417kts
29-Apr-17 11:56 28.686169 -139.505169 250 36176ft 418kts
29-Apr-17 11:57 28.641433 -139.627014 250 36175ft 418kts
29-Apr-17 11:58 28.596762 -139.748289 250 36186ft 418kts
29-Apr-17 11:59 28.551873 -139.869759 250 35973ft 418kts
29-Apr-17 12:00 28.506522 -139.991964 253 35967ft 429kts
29-Apr-17 12:01 28.459279 -140.119092 252 35966ft 439kts
29-Apr-17 12:02 28.412011 -140.245705 252 35965ft 439kts
29-Apr-17 12:03 28.364175 -140.373417 252 35965ft 439kts
29-Apr-17 12:04 28.327373 -140.471382 252 35964ft 439kts
29-Apr-17 12:05 28.279623 -140.598137 252 35963ft 439kts
29-Apr-17 12:06 28.231558 -140.725273 252 35972ft 439kts
29-Apr-17 12:07 28.183350 -140.852357 252 35971ft 439kts
29-Apr-17 12:08 28.135182 -140.978920 252 35970ft 439kts
29-Apr-17 12:09 28.086664 -141.105964 252 35971ft 437kts
29-Apr-17 12:10 28.038440 -141.231851 252 35969ft 437kts
29-Apr-17 12:11 27.989967 -141.357967 252 35968ft 437kts
29-Apr-17 12:12 27.941534 -141.483564 252 35967ft 437kts
29-Apr-17 12:13 27.892877 -141.609335 252 35959ft 437kts
29-Apr-17 12:14 27.844088 -141.735024 252 35966ft 438kts
29-Apr-17 12:15 27.795247 -141.860455 252 35965ft 438kts
29-Apr-17 12:16 27.746317 -141.985705 252 35965ft 438kts
29-Apr-17 12:17 27.697121 -142.111237 252 35964ft 438kts
29-Apr-17 12:18 27.647951 -142.236300 252 35963ft 438kts
29-Apr-17 12:19 27.598548 -142.361556 252 35962ft 438kts
29-Apr-17 12:20 27.548976 -142.486844 252 35961ft 438kts
29-Apr-17 12:21 27.507670 -142.590940 252 35960ft 438kts
29-Apr-17 12:22 27.449783 -142.736387 251 35963ft 441kts
29-Apr-17 12:23 27.408206 -142.840483 251 35970ft 438kts
29-Apr-17 12:24 27.349892 -142.986063 251 35968ft 438kts
29-Apr-17 12:25 27.299796 -143.110705 251 35968ft 438kts
29-Apr-17 12:26 27.257971 -143.214475 251 35967ft 438kts
29-Apr-17 12:27 27.199210 -143.359809 251 35966ft 438kts
29-Apr-17 12:28 27.157175 -143.463459 251 35965ft 438kts
29-Apr-17 12:29 27.098243 -143.608367 251 35963ft 441kts
29-Apr-17 12:30 27.055987 -143.711871 251 35974ft 439kts
29-Apr-17 12:31 26.996564 -143.857042 251 35973ft 439kts
29-Apr-17 12:32 26.954043 -143.960614 251 35972ft 439kts
29-Apr-17 12:33 26.894515 -144.105171 251 35966ft 439kts
29-Apr-17 12:34 26.851919 -144.208295 251 35962ft 440kts
29-Apr-17 12:35 26.791999 -144.352921 251 35961ft 440kts
29-Apr-17 12:36 26.749100 -144.456154 251 35960ft 440kts
29-Apr-17 12:37 26.689052 -144.600225 251 35959ft 440kts
29-Apr-17 12:38 26.646117 -144.702941 250 35969ft 440kts
29-Apr-17 12:39 26.594155 -144.826909 250 35968ft 440kts
29-Apr-17 12:40 26.542261 -144.950343 250 35967ft 440kts
29-Apr-17 12:41 26.490274 -145.073634 250 35966ft 440kts
29-Apr-17 12:42 26.438101 -145.197005 250 35965ft 440kts
29-Apr-17 12:43 26.385977 -145.319900 250 35965ft 440kts
29-Apr-17 12:44 26.333734 -145.442719 250 35964ft 440kts
29-Apr-17 12:45 26.281165 -145.565944 250 35963ft 440kts
29-Apr-17 12:46 26.228687 -145.688600 250 35974ft 441kts
29-Apr-17 12:47 26.176018 -145.811338 250 35972ft 441kts
29-Apr-17 12:48 26.123191 -145.934100 250 35971ft 441kts
29-Apr-17 12:49 26.070243 -146.056790 250 35970ft 441kts
29-Apr-17 12:50 26.017143 -146.179507 250 35969ft 441kts
29-Apr-17 12:51 25.964195 -146.301734 250 35969ft 441kts
29-Apr-17 12:52 25.911000 -146.424174 250 35968ft 441kts
29-Apr-17 12:53 25.857669 -146.546564 250 35958ft 441kts
29-Apr-17 12:54 25.804321 -146.668658 249 35966ft 441kts
29-Apr-17 12:55 25.750751 -146.790927 249 35967ft 441kts
29-Apr-17 12:56 25.697102 -146.913026 249 35966ft 441kts
29-Apr-17 12:57 25.643455 -147.034780 249 35966ft 442kts
29-Apr-17 12:58 25.617093 -147.094483 249 35965ft 442kts
29-Apr-17 12:59 25.617093 -147.094483 249 35965ft 442kts
29-Apr-17 13:00 25.617093 -147.094483 249 35965ft 442kts
29-Apr-17 13:01 25.579007 -147.180862 250 35964ft 442kts
29-Apr-17 13:02 25.525043 -147.302687 249 35964ft 442kts
29-Apr-17 13:03 25.470962 -147.424358 249 35963ft 442kts
29-Apr-17 13:04 25.416743 -147.545982 249 35935ft 442kts
29-Apr-17 13:05 25.362377 -147.667620 249 35942ft 443kts
29-Apr-17 13:06 25.307716 -147.789565 249 35944ft 442kts
29-Apr-17 13:07 25.253125 -147.911030 249 35943ft 443kts
29-Apr-17 13:08 25.198415 -148.032430 249 35942ft 443kts
29-Apr-17 13:09 25.143706 -148.153498 249 35941ft 443kts
29-Apr-17 13:10 25.088772 -148.274742 249 35941ft 443kts
29-Apr-17 13:11 25.033682 -148.396000 249 35940ft 443kts
29-Apr-17 13:12 24.978500 -148.517140 249 35939ft 443kts
29-Apr-17 13:13 24.923399 -148.637777 249 35938ft 443kts
29-Apr-17 13:14 24.868896 -148.756779 249 35940ft 443kts
29-Apr-17 13:15 24.813289 -148.877878 249 35938ft 443kts
29-Apr-17 13:16 24.757751 -148.998507 249 35938ft 443kts
29-Apr-17 13:17 24.702169 -149.118943 249 35938ft 445kts
29-Apr-17 13:18 24.646491 -149.239218 249 35936ft 443kts
29-Apr-17 13:19 24.590691 -149.359473 249 35935ft 443kts
29-Apr-17 13:20 24.531264 -149.487197 249 35935ft 443kts
29-Apr-17 13:21 24.475408 -149.606925 249 35934ft 443kts
29-Apr-17 13:22 24.419237 -149.727024 248 35943ft 444kts
29-Apr-17 13:23 24.362955 -149.847053 248 35943ft 444kts
29-Apr-17 13:24 24.306441 -149.967253 248 35941ft 443kts
29-Apr-17 13:25 24.249976 -150.087059 248 35941ft 444kts
29-Apr-17 13:26 24.193298 -150.207000 248 35940ft 444kts
29-Apr-17 13:27 24.136624 -150.326636 248 35940ft 444kts
29-Apr-17 13:28 24.079908 -150.446057 248 35939ft 444kts
29-Apr-17 13:29 24.023026 -150.565526 248 35938ft 444kts
29-Apr-17 13:30 23.966094 -150.684801 248 35949ft 445kts
29-Apr-17 13:31 23.908843 -150.804437 248 35950ft 445kts
29-Apr-17 13:32 23.851509 -150.923943 248 35938ft 445kts
29-Apr-17 13:33 23.794139 -151.043236 248 35937ft 445kts
29-Apr-17 13:34 23.736617 -151.162548 248 35936ft 445kts
29-Apr-17 13:35 23.679068 -151.281623 248 35935ft 445kts
29-Apr-17 13:36 23.621474 -151.400497 248 35935ft 445kts
29-Apr-17 13:37 23.563723 -151.519407 248 35934ft 445kts
29-Apr-17 13:38 23.505900 -151.638173 248 35933ft 445kts
29-Apr-17 13:39 23.447797 -151.757216 247 35943ft 445kts
29-Apr-17 13:40 23.389725 -151.875912 247 35942ft 445kts
29-Apr-17 13:41 23.331554 -151.994524 247 35941ft 445kts
29-Apr-17 13:42 23.273312 -152.112995 247 35941ft 445kts
29-Apr-17 13:43 23.214988 -152.231352 247 35940ft 445kts
29-Apr-17 13:44 23.156492 -152.349772 247 35939ft 445kts
29-Apr-17 13:45 23.097951 -152.468006 247 35939ft 445kts
29-Apr-17 13:46 23.039473 -152.585758 247 35938ft 446kts
29-Apr-17 13:47 22.980370 -152.703730 247 35948ft 446kts
29-Apr-17 13:48 22.921139 -152.821701 247 35947ft 446kts
29-Apr-17 13:49 22.861798 -152.939623 247 35938ft 446kts
29-Apr-17 13:50 22.802616 -153.056947 247 35937ft 446kts
29-Apr-17 13:51 22.743219 -153.174424 247 35936ft 446kts
29-Apr-17 13:52 22.672115 -153.314696 247 35935ft 446kts
29-Apr-17 13:53 22.601699 -153.453206 247 35975ft 446kts
29-Apr-17 13:54 22.542435 -153.569510 247 35935ft 446kts
29-Apr-17 13:55 22.482934 -153.686020 246 35996ft 446kts
29-Apr-17 13:56 22.423269 -153.802605 246 35999ft 447kts
29-Apr-17 13:57 22.387991 -153.925669 274 36003ft 426kts
29-Apr-17 13:58 22.389753 -154.053505 275 35995ft 425kts
29-Apr-17 13:59 22.392220 -154.180180 275 35993ft 425kts
29-Apr-17 14:00 22.394594 -154.298735 275 35992ft 425kts
29-Apr-17 14:01 22.397081 -154.426109 275 35991ft 425kts
29-Apr-17 14:02 22.399317 -154.545050 275 35989ft 425kts
29-Apr-17 14:03 22.401491 -154.665534 274 35995ft 426kts
29-Apr-17 14:04 22.403663 -154.790999 274 35997ft 426kts
29-Apr-17 14:05 22.405766 -154.918330 274 35996ft 426kts
29-Apr-17 14:06 22.407763 -155.045352 274 35994ft 426kts
29-Apr-17 14:07 22.409640 -155.170772 274 35993ft 416kts
29-Apr-17 14:08 22.411412 -155.295547 274 35991ft 416kts
29-Apr-17 14:09 22.413084 -155.420069 274 35989ft 416kts
29-Apr-17 14:10 22.414669 -155.545293 274 35988ft 416kts
29-Apr-17 14:11 22.416009 -155.657638 274 35990ft 417kts
29-Apr-17 14:12 22.416880 -155.733122 274 35998ft 417kts
29-Apr-17 14:13 22.418237 -155.858473 274 35996ft 417kts
29-Apr-17 14:14 22.419481 -155.983099 274 35995ft 417kts
29-Apr-17 14:15 22.420631 -156.108144 274 35993ft 417kts
29-Apr-17 14:16 22.407099 -156.268139 251 35984ft 403kts
29-Apr-17 14:17 22.336965 -156.352803 223 36020ft 431kts
29-Apr-17 14:18 22.251098 -156.440941 235 33975ft 427kts
29-Apr-17 14:19 22.174447 -156.537102 236 32645ft 424kts
29-Apr-17 14:20 22.098142 -156.634368 237 31045ft 428kts
29-Apr-17 14:21 22.023070 -156.731291 237 28993ft 428kts
29-Apr-17 14:22 21.947871 -156.828452 235 26528ft 416kts
29-Apr-17 14:23 21.882173 -156.913177 235 24378ft 393kts
29-Apr-17 14:24 21.814810 -157.000032 235 21761ft 373kts
29-Apr-17 14:25 21.750333 -157.083089 235 19004ft 355kts
29-Apr-17 14:26 21.688476 -157.162288 236 16307ft 340kts
29-Apr-17 14:27 21.629046 -157.238821 230 14024ft 329kts
29-Apr-17 14:28 21.570991 -157.313152 230 12280ft 320kts
29-Apr-17 14:29 21.514591 -157.385090 230 10765ft 311kts
29-Apr-17 14:30 21.458788 -157.456352 230 10721ft 313kts
29-Apr-17 14:31 21.404750 -157.525395 230 9967ft 286kts
29-Apr-17 14:32 21.357282 -157.585989 230 9297ft 258kts
29-Apr-17 14:33 21.311647 -157.644143 230 8066ft 253kts
29-Apr-17 14:34 21.269601 -157.697889 235 6964ft 248kts
29-Apr-17 14:35 21.250683 -157.767295 254 5159ft 243kts
29-Apr-17 14:36 21.206908 -157.816113 219 4227ft 228kts
29-Apr-17 14:37 21.158720 -157.859254 223 3198ft 225kts
29-Apr-17 14:38 21.128969 -157.911247 287 2998ft 234kts
29-Apr-17 14:39 21.178073 -157.961482 312 2984ft 247kts
29-Apr-17 14:40 21.186979 -158.023541 257 2987ft 214kts
29-Apr-17 14:41 21.214538 -158.061784 11 2838ft 202kts
29-Apr-17 14:42 21.250211 -158.017673 52 1479ft 182kts
29-Apr-17 14:43 21.279986 -157.975248 51 672ft 182kts
29-Apr-17 14:44 21.310369 -157.932241 50 447ft 178kts
29-Apr-17 14:45 21.327758 -157.907571 55 16ft 0kts
29-Apr-17 14:46 21.327758 -157.907571 55 16ft 0kts
29-Apr-17 14:47 21.327758 -157.907571 55 16ft 0kts
29-Apr-17 14:48 35.238827 -120.639254 269 199ft 0kts

Navigation Log

Ident Type
Flight plan parsing failed, navigation log unavailable